createdAt,value
2022-10-17T00:00:10.316Z,2.00
2022-10-17T00:02:36.815Z,1.60
2022-10-17T00:05:03.520Z,1.43
2022-10-17T00:07:30.808Z,1.50
2022-10-17T00:09:57.532Z,1.50
2022-10-17T00:12:24.040Z,1.40
2022-10-17T00:14:50.530Z,1.63
2022-10-17T00:17:17.068Z,1.40
2022-10-17T00:19:43.536Z,1.83
2022-10-17T00:22:10.026Z,1.40
2022-10-17T00:24:36.543Z,1.10
2022-10-17T00:27:03.028Z,1.60
2022-10-17T00:29:29.566Z,1.43
2022-10-17T00:31:56.963Z,1.50
2022-10-17T00:34:24.138Z,1.67
2022-10-17T00:36:50.638Z,1.40
2022-10-17T00:39:17.180Z,1.57
2022-10-17T00:41:43.714Z,1.53
2022-10-17T00:44:29.060Z,1.67
2022-10-17T00:46:59.695Z,1.40
2022-10-17T00:49:27.460Z,1.47
2022-10-17T00:51:59.041Z,1.50
2022-10-17T00:54:31.407Z,1.20
2022-10-17T00:56:57.923Z,1.40
2022-10-17T00:59:24.506Z,1.53
2022-10-17T01:02:02.015Z,1.33
2022-10-17T01:04:28.515Z,1.47
2022-10-17T01:06:55.020Z,1.37
2022-10-17T01:09:21.501Z,1.43
2022-10-17T01:11:52.539Z,2.23
2022-10-17T01:14:46.912Z,1.50
2022-10-17T01:17:36.060Z,1.37
2022-10-17T01:20:20.821Z,1.33
2022-10-17T01:23:07.978Z,1.40
2022-10-17T01:25:43.027Z,1.37
2022-10-17T01:28:24.082Z,1.57
2022-10-17T01:31:03.441Z,1.43
2022-10-17T01:33:40.209Z,1.40
2022-10-17T01:36:21.991Z,1.50
2022-10-17T01:39:01.033Z,1.47
2022-10-17T01:41:34.381Z,1.40
2022-10-17T01:44:05.221Z,1.40
2022-10-17T01:46:43.934Z,2.53
2022-10-17T01:49:10.763Z,1.33
2022-10-17T01:51:40.081Z,1.30
2022-10-17T01:54:09.522Z,1.37
2022-10-17T01:56:36.011Z,1.30
2022-10-17T01:59:17.435Z,1.40
2022-10-17T02:01:44.825Z,1.50
2022-10-17T02:04:11.539Z,1.40
2022-10-17T02:06:38.036Z,1.40
2022-10-17T02:09:26.463Z,1.50
2022-10-17T02:12:11.487Z,1.30
2022-10-17T02:14:43.983Z,1.30
2022-10-17T02:17:32.191Z,1.47
2022-10-17T02:20:07.612Z,1.43
2022-10-17T02:22:41.780Z,1.40
2022-10-17T02:25:27.679Z,1.30
2022-10-17T02:28:00.355Z,1.30
2022-10-17T02:30:33.998Z,1.30
2022-10-17T02:33:12.662Z,2.20
2022-10-17T02:35:41.689Z,1.50
2022-10-17T02:38:08.380Z,1.40
2022-10-17T02:40:34.886Z,1.27
2022-10-17T02:43:01.353Z,1.37
2022-10-17T02:45:28.626Z,1.27
2022-10-17T02:48:16.771Z,1.40
2022-10-17T02:50:58.635Z,1.43
2022-10-17T02:53:30.630Z,1.30
2022-10-17T02:56:01.784Z,1.60
2022-10-17T02:58:31.130Z,1.40
2022-10-17T03:00:58.293Z,1.30
2022-10-17T03:03:26.772Z,1.43
2022-10-17T03:05:53.443Z,1.50
2022-10-17T03:08:20.254Z,1.37
2022-10-17T03:10:46.758Z,1.30
2022-10-17T03:13:13.911Z,1.13
2022-10-17T03:15:40.400Z,1.40
2022-10-17T03:18:06.907Z,1.50
2022-10-17T03:20:33.386Z,1.37
2022-10-17T03:22:59.879Z,1.40
2022-10-17T03:25:26.394Z,1.30
2022-10-17T03:27:53.079Z,1.50
2022-10-17T03:30:19.725Z,1.60
2022-10-17T03:32:46.287Z,1.60
2022-10-17T03:35:15.075Z,1.23
2022-10-17T03:37:41.746Z,1.50
2022-10-17T03:40:08.571Z,1.37
2022-10-17T03:42:35.030Z,1.30
2022-10-17T03:45:01.639Z,1.97
2022-10-17T03:47:29.039Z,1.50
2022-10-17T03:49:55.756Z,1.30
2022-10-17T03:52:22.258Z,1.30
2022-10-17T03:54:49.900Z,2.80
2022-10-17T03:57:16.651Z,1.40
2022-10-17T03:59:43.130Z,1.17
2022-10-17T04:02:09.724Z,1.33
2022-10-17T04:04:36.206Z,1.40
2022-10-17T04:07:02.662Z,1.60
2022-10-17T04:09:29.147Z,1.40
2022-10-17T04:11:55.638Z,1.40
2022-10-17T04:14:22.126Z,1.40
2022-10-17T04:16:48.676Z,1.33
2022-10-17T04:19:15.155Z,1.40
2022-10-17T04:21:41.638Z,1.33
2022-10-17T04:24:10.285Z,1.50
2022-10-17T04:26:36.784Z,1.40
2022-10-17T04:29:03.563Z,1.50
2022-10-17T04:31:30.047Z,1.50
2022-10-17T04:33:56.528Z,1.40
2022-10-17T04:36:23.382Z,1.40
2022-10-17T04:38:49.911Z,1.50
2022-10-17T04:41:17.667Z,1.60
2022-10-17T04:43:46.967Z,1.40
2022-10-17T04:46:16.751Z,1.30
2022-10-17T04:48:43.231Z,1.23
2022-10-17T04:51:18.743Z,1.43
2022-10-17T04:53:47.251Z,1.60
2022-10-17T04:56:15.598Z,1.60
2022-10-17T04:58:42.466Z,1.57
2022-10-17T05:01:10.750Z,1.60
2022-10-17T05:03:37.347Z,1.40
2022-10-17T05:06:07.660Z,1.47
2022-10-17T05:08:34.608Z,1.17
2022-10-17T05:11:01.142Z,1.20
2022-10-17T05:13:27.659Z,1.43
2022-10-17T05:15:54.225Z,1.40
2022-10-17T05:18:20.709Z,1.47
2022-10-17T05:20:47.235Z,1.60
2022-10-17T05:23:13.716Z,1.13
2022-10-17T05:25:40.236Z,1.40
2022-10-17T05:28:06.786Z,1.97
2022-10-17T05:30:36.695Z,1.37
2022-10-17T05:33:03.388Z,1.40
2022-10-17T05:35:29.880Z,1.70
2022-10-17T05:37:56.413Z,6.60
2022-10-17T05:40:22.906Z,4.73
2022-10-17T05:42:49.428Z,3.63
2022-10-17T05:45:16.139Z,5.63
2022-10-17T05:47:42.632Z,5.40
2022-10-17T05:50:09.370Z,7.00
2022-10-17T05:52:35.988Z,5.40
2022-10-17T05:55:03.243Z,4.43
2022-10-17T05:57:29.724Z,4.90
2022-10-17T05:59:56.243Z,4.70
2022-10-17T06:02:22.846Z,8.40
2022-10-17T06:04:50.107Z,5.87
2022-10-17T06:07:16.688Z,7.87
2022-10-17T06:09:43.395Z,6.33
2022-10-17T06:12:09.868Z,6.87
2022-10-17T06:14:36.343Z,8.07
2022-10-17T06:17:02.835Z,5.53
2022-10-17T06:19:29.383Z,6.47
2022-10-17T06:21:55.868Z,6.97
2022-10-17T06:24:22.431Z,13.80
2022-10-17T06:26:49.882Z,9.23
2022-10-17T06:29:16.400Z,9.60
2022-10-17T06:31:42.904Z,8.73
2022-10-17T06:34:09.389Z,7.73
2022-10-17T06:36:35.895Z,9.67
2022-10-17T06:39:02.444Z,8.00
2022-10-17T06:41:29.008Z,9.23
2022-10-17T06:43:55.553Z,6.70
2022-10-17T06:46:22.091Z,7.40
2022-10-17T06:48:48.556Z,6.77
2022-10-17T06:51:15.066Z,7.53
2022-10-17T06:53:41.522Z,6.83
2022-10-17T06:56:08.303Z,8.23
2022-10-17T06:58:36.331Z,6.63
2022-10-17T07:01:05.306Z,6.60
2022-10-17T07:03:31.939Z,7.23
2022-10-17T07:05:58.602Z,5.03
2022-10-17T07:08:25.346Z,7.20
2022-10-17T07:10:51.878Z,5.27
2022-10-17T07:13:18.807Z,6.00
2022-10-17T07:15:45.445Z,5.83
2022-10-17T07:18:11.991Z,5.83
2022-10-17T07:20:38.538Z,6.97
2022-10-17T07:23:05.058Z,8.60
2022-10-17T07:25:33.273Z,12.60
2022-10-17T07:28:02.228Z,8.97
2022-10-17T07:30:28.725Z,9.10
2022-10-17T07:32:55.298Z,6.73
2022-10-17T07:35:21.847Z,7.10
2022-10-17T07:37:48.327Z,5.90
2022-10-17T07:40:15.039Z,7.80
2022-10-17T07:42:41.583Z,6.47
2022-10-17T07:45:08.543Z,7.13
2022-10-17T07:47:37.600Z,6.00
2022-10-17T07:50:04.859Z,8.37
2022-10-17T07:52:31.829Z,5.63
2022-10-17T07:54:58.811Z,5.67
2022-10-17T07:57:25.555Z,6.10
2022-10-17T07:59:53.087Z,6.40
2022-10-17T08:02:24.077Z,11.30
2022-10-17T08:04:51.343Z,5.27
2022-10-17T08:07:24.137Z,6.23
2022-10-17T08:09:53.530Z,7.07
2022-10-17T08:12:20.431Z,8.10
2022-10-17T08:14:48.099Z,5.57
2022-10-17T08:17:14.596Z,4.60
2022-10-17T08:19:41.183Z,6.50
2022-10-17T08:22:07.851Z,4.77
2022-10-17T08:24:34.424Z,5.47
2022-10-17T08:27:01.085Z,6.53
2022-10-17T08:29:27.623Z,6.17
2022-10-17T08:31:58.607Z,5.27
2022-10-17T08:34:28.027Z,5.70
2022-10-17T08:36:54.575Z,5.87
2022-10-17T08:39:21.128Z,4.43
2022-10-17T08:42:05.622Z,4.63
2022-10-17T08:45:09.715Z,4.70
2022-10-17T08:47:42.300Z,6.97
2022-10-17T08:50:25.686Z,4.30
2022-10-17T08:52:54.320Z,4.90
2022-10-17T08:55:41.280Z,6.43
2022-10-17T08:58:15.467Z,4.70
2022-10-17T09:01:02.768Z,4.60
2022-10-17T09:03:29.933Z,4.43
2022-10-17T09:06:03.879Z,4.40
2022-10-17T09:08:41.381Z,4.13
2022-10-17T09:11:15.223Z,5.57
2022-10-17T09:14:43.490Z,4.00
2022-10-17T09:17:18.487Z,3.93
2022-10-17T09:20:10.262Z,4.83
2022-10-17T09:22:50.201Z,3.70
2022-10-17T09:25:17.640Z,4.10
2022-10-17T09:28:10.472Z,3.63
2022-10-17T09:30:45.067Z,4.43
2022-10-17T09:33:35.073Z,5.97
2022-10-17T09:36:17.209Z,4.13
2022-10-17T09:38:52.671Z,7.17
2022-10-17T09:41:45.974Z,3.90
2022-10-17T09:44:22.007Z,4.00
2022-10-17T09:47:10.306Z,4.00
2022-10-17T09:49:38.803Z,4.10
2022-10-17T09:52:19.304Z,3.97
2022-10-17T09:54:50.899Z,3.37
2022-10-17T09:57:18.647Z,4.20
2022-10-17T09:59:47.403Z,3.77
2022-10-17T10:02:13.832Z,3.30
2022-10-17T10:05:05.974Z,4.70
2022-10-17T10:07:38.119Z,3.43
2022-10-17T10:10:06.883Z,3.80
2022-10-17T10:12:37.700Z,3.57
2022-10-17T10:15:31.445Z,4.63
2022-10-17T10:17:57.927Z,5.13
2022-10-17T10:20:30.896Z,8.40
2022-10-17T10:23:18.592Z,4.60
2022-10-17T10:25:56.232Z,4.47
2022-10-17T10:28:30.742Z,4.80
2022-10-17T10:30:58.828Z,4.63
2022-10-17T10:33:29.087Z,5.33
2022-10-17T10:36:01.863Z,3.87
2022-10-17T10:38:34.608Z,4.17
2022-10-17T10:41:10.384Z,5.03
2022-10-17T10:43:41.268Z,4.73
2022-10-17T10:46:30.040Z,4.67
2022-10-17T10:48:59.653Z,4.47
2022-10-17T10:51:40.244Z,4.57
2022-10-17T10:54:16.133Z,5.17
2022-10-17T10:56:45.481Z,4.30
2022-10-17T10:59:41.499Z,3.97
2022-10-17T11:02:11.004Z,4.37
2022-10-17T11:04:53.688Z,5.57
2022-10-17T11:07:43.757Z,4.43
2022-10-17T11:10:26.396Z,4.50
2022-10-17T11:12:57.278Z,5.20
2022-10-17T11:15:54.744Z,5.13
2022-10-17T11:18:35.211Z,4.67
2022-10-17T11:21:15.217Z,5.03
2022-10-17T11:23:45.000Z,5.17
2022-10-17T11:26:15.589Z,6.50
2022-10-17T11:28:42.102Z,5.90
2022-10-17T11:31:14.842Z,7.17
2022-10-17T11:33:49.009Z,6.57
2022-10-17T11:36:16.969Z,6.27
2022-10-17T11:39:02.153Z,6.73
2022-10-17T11:41:44.625Z,6.50
2022-10-17T11:44:39.360Z,5.10
2022-10-17T11:47:30.623Z,4.10
2022-10-17T11:53:17.570Z,4.33
2022-10-17T11:55:44.031Z,6.70
2022-10-17T11:58:32.545Z,6.60
2022-10-17T12:01:30.039Z,8.20
2022-10-17T12:04:13.831Z,5.77
2022-10-17T12:07:11.652Z,4.73
2022-10-17T12:10:00.035Z,6.83
2022-10-17T12:12:31.927Z,5.77
2022-10-17T12:15:13.972Z,6.23
2022-10-17T12:17:44.684Z,9.33
2022-10-17T12:20:21.174Z,4.13
2022-10-17T12:22:48.179Z,5.37
2022-10-17T12:25:23.958Z,6.20
2022-10-17T12:27:50.808Z,4.67
2022-10-17T12:30:22.769Z,6.60
2022-10-17T12:33:07.189Z,5.30
2022-10-17T12:35:35.372Z,6.00
2022-10-17T12:38:18.141Z,5.10
2022-10-17T12:40:48.718Z,5.43
2022-10-17T12:43:15.555Z,6.33
2022-10-17T12:45:46.955Z,6.23
2022-10-17T12:48:30.640Z,4.67
2022-10-17T12:51:17.686Z,4.33
2022-10-17T12:53:46.554Z,5.43
2022-10-17T12:56:17.185Z,5.27
2022-10-17T12:58:48.309Z,4.80
2022-10-17T13:01:27.194Z,5.67
2022-10-17T13:03:53.728Z,5.43
2022-10-17T13:06:28.008Z,4.77
2022-10-17T13:09:04.151Z,5.37
2022-10-17T13:11:32.675Z,6.87
2022-10-17T13:14:00.663Z,6.80
2022-10-17T13:16:59.572Z,5.23
2022-10-17T13:19:29.263Z,4.30
2022-10-17T13:22:05.979Z,4.87
2022-10-17T13:24:36.975Z,4.00
2022-10-17T13:27:04.279Z,3.97
2022-10-17T13:29:32.309Z,6.13
2022-10-17T13:32:01.444Z,4.53
2022-10-17T13:34:28.041Z,4.20
2022-10-17T13:37:02.547Z,5.67
2022-10-17T13:39:54.738Z,6.23
2022-10-17T13:42:27.705Z,4.60
2022-10-17T13:44:54.601Z,4.50
2022-10-17T13:47:26.007Z,4.27
2022-10-17T13:49:55.160Z,6.07
2022-10-17T13:52:24.433Z,3.30
2022-10-17T13:54:51.775Z,4.17
2022-10-17T13:57:23.692Z,4.50
2022-10-17T13:59:52.358Z,6.70
2022-10-17T14:02:24.481Z,7.60
2022-10-17T14:05:23.010Z,5.47
2022-10-17T14:08:13.781Z,7.23
2022-10-17T14:10:42.475Z,12.10
2022-10-17T14:13:24.669Z,11.17
2022-10-17T14:15:52.036Z,11.63
2022-10-17T14:18:21.942Z,8.63
2022-10-17T14:21:31.791Z,13.57
2022-10-17T14:23:38.026Z,7.83
2022-10-17T14:26:06.666Z,8.93
2022-10-17T14:28:33.249Z,8.33
2022-10-17T14:31:14.072Z,8.47
2022-10-17T14:33:50.577Z,8.80
2022-10-17T14:36:17.845Z,8.30
2022-10-17T14:38:49.871Z,6.50
2022-10-17T14:44:20.751Z,6.40
2022-10-17T14:46:50.698Z,6.97
2022-10-17T14:49:28.374Z,7.30
2022-10-17T14:52:28.482Z,7.67
2022-10-17T14:54:55.273Z,6.23
2022-10-17T14:57:26.308Z,6.67
2022-10-17T14:59:55.576Z,6.13
2022-10-17T15:02:24.076Z,7.73
2022-10-17T15:04:50.572Z,7.50
2022-10-17T15:07:17.544Z,8.47
2022-10-17T15:09:44.589Z,7.00
2022-10-17T15:12:18.921Z,7.17
2022-10-17T15:14:45.648Z,7.13
2022-10-17T15:17:27.284Z,6.47
2022-10-17T15:19:53.962Z,6.83
2022-10-17T15:22:20.450Z,7.20
2022-10-17T15:24:46.998Z,5.87
2022-10-17T15:27:24.088Z,5.73
2022-10-17T15:29:50.735Z,7.23
2022-10-17T15:32:17.238Z,7.17
2022-10-17T15:34:43.759Z,6.67
2022-10-17T15:37:22.048Z,5.93
2022-10-17T15:39:53.391Z,5.50
2022-10-17T15:42:26.576Z,7.43
2022-10-17T15:44:53.139Z,4.40
2022-10-17T15:47:23.941Z,6.17
2022-10-17T15:49:50.542Z,5.90
2022-10-17T15:52:17.053Z,5.90
2022-10-17T15:54:43.546Z,6.03
2022-10-17T15:57:18.727Z,4.73
2022-10-17T15:59:46.871Z,6.30
2022-10-17T16:02:14.575Z,5.17
2022-10-17T16:04:41.242Z,5.77
2022-10-17T16:07:07.729Z,5.17
2022-10-17T16:09:34.795Z,4.20
2022-10-17T16:12:01.338Z,6.03
2022-10-17T16:14:27.853Z,8.30
2022-10-17T16:16:54.485Z,6.60
2022-10-17T16:19:21.723Z,5.27
2022-10-17T16:21:48.199Z,5.97
2022-10-17T16:24:14.704Z,4.23
2022-10-17T16:26:41.272Z,3.63
2022-10-17T16:29:09.275Z,5.03
2022-10-17T16:31:36.747Z,6.07
2022-10-17T16:34:03.715Z,6.27
2022-10-17T16:36:30.241Z,5.10
2022-10-17T16:38:56.765Z,6.67
2022-10-17T16:41:31.244Z,4.97
2022-10-17T16:43:59.025Z,4.70
2022-10-17T16:46:26.352Z,6.90
2022-10-17T16:48:52.848Z,6.10
2022-10-17T16:51:19.979Z,7.03
2022-10-17T16:53:47.388Z,5.77
2022-10-17T16:56:15.480Z,5.30
2022-10-17T16:58:42.272Z,5.50
2022-10-17T17:01:10.947Z,5.30
2022-10-17T17:03:38.090Z,7.33
2022-10-17T17:06:06.536Z,5.10
2022-10-17T17:08:33.632Z,4.57
2022-10-17T17:11:00.285Z,3.93
2022-10-17T17:13:27.854Z,5.00
2022-10-17T17:16:04.568Z,6.83
2022-10-17T17:18:31.649Z,6.03
2022-10-17T17:21:02.086Z,6.07
2022-10-17T17:23:28.915Z,4.47
2022-10-17T17:25:59.487Z,5.17
2022-10-17T17:28:26.528Z,4.43
2022-10-17T17:30:53.691Z,5.17
2022-10-17T17:33:20.687Z,5.47
2022-10-17T17:35:47.160Z,11.87
2022-10-17T17:38:14.240Z,11.23
2022-10-17T17:40:50.376Z,6.20
2022-10-17T17:43:17.934Z,7.03
2022-10-17T17:45:44.717Z,8.10
2022-10-17T17:48:12.230Z,5.63
2022-10-17T17:50:39.518Z,7.33
2022-10-17T17:53:06.739Z,4.73
2022-10-17T17:55:33.737Z,6.30
2022-10-17T17:58:00.419Z,6.57
2022-10-17T18:00:27.290Z,7.57
2022-10-17T18:02:53.809Z,6.57
2022-10-17T18:05:20.306Z,5.20
2022-10-17T18:07:46.854Z,5.40
2022-10-17T18:12:42.076Z,5.20
2022-10-17T18:15:08.927Z,5.73
2022-10-17T18:17:35.523Z,6.93
2022-10-17T18:20:03.466Z,5.07
2022-10-17T18:22:30.302Z,4.20
2022-10-17T18:24:56.929Z,6.43
2022-10-17T18:27:23.406Z,3.87
2022-10-17T18:29:51.125Z,4.87
2022-10-17T18:32:17.699Z,4.47
2022-10-17T18:34:44.262Z,4.43
2022-10-17T18:37:10.801Z,8.47
2022-10-17T18:39:37.402Z,9.10
2022-10-17T18:42:03.911Z,5.77
2022-10-17T18:44:30.465Z,7.60
2022-10-17T18:47:02.901Z,4.73
2022-10-17T18:49:30.854Z,5.33
2022-10-17T18:51:57.551Z,5.23
2022-10-17T18:54:24.410Z,4.80
2022-10-17T18:56:51.847Z,7.67
2022-10-17T18:59:19.199Z,4.90
2022-10-17T19:01:45.796Z,3.87
2022-10-17T19:04:12.425Z,3.50
2022-10-17T19:06:39.026Z,3.50
2022-10-17T19:09:07.415Z,6.00
2022-10-17T19:11:34.696Z,4.57
2022-10-17T19:14:02.526Z,3.80
2022-10-17T19:16:31.075Z,4.63
2022-10-17T19:18:59.674Z,3.07
2022-10-17T19:21:26.267Z,4.10
2022-10-17T19:23:58.370Z,3.63
2022-10-17T19:26:25.280Z,5.00
2022-10-17T19:28:53.418Z,6.40
2022-10-17T19:31:27.083Z,3.57
2022-10-17T19:33:54.302Z,5.00
2022-10-17T19:36:21.527Z,4.33
2022-10-17T19:38:48.083Z,4.50
2022-10-17T19:41:15.327Z,3.67
2022-10-17T19:43:42.512Z,4.30
2022-10-17T19:46:12.519Z,4.67
2022-10-17T19:48:39.115Z,4.07
2022-10-17T19:51:06.423Z,4.40
2022-10-17T19:53:33.227Z,4.40
2022-10-17T19:55:59.831Z,5.87
2022-10-17T19:58:26.425Z,3.90
2022-10-17T20:00:57.623Z,3.80
2022-10-17T20:03:24.742Z,3.30
2022-10-17T20:05:51.265Z,3.20
2022-10-17T20:08:17.812Z,4.20
2022-10-17T20:10:44.354Z,5.47
2022-10-17T20:13:10.830Z,3.77
2022-10-17T20:15:37.453Z,5.33
2022-10-17T20:18:04.605Z,3.73
2022-10-17T20:20:31.090Z,5.97
2022-10-17T20:22:57.567Z,4.00
2022-10-17T20:25:24.116Z,3.60
2022-10-17T20:27:50.638Z,5.10
2022-10-17T20:30:17.171Z,3.47
2022-10-17T20:32:43.715Z,3.00
2022-10-17T20:35:10.218Z,4.00
2022-10-17T20:37:41.526Z,3.23
2022-10-17T20:40:34.027Z,3.50
2022-10-17T20:42:56.199Z,3.03
2022-10-17T20:45:37.338Z,4.13
2022-10-17T20:48:14.276Z,3.60
2022-10-17T20:50:41.071Z,4.63
2022-10-17T20:53:31.803Z,2.80
2022-10-17T20:56:04.460Z,3.57
2022-10-17T20:58:31.002Z,3.30
2022-10-17T21:00:57.538Z,3.00
2022-10-17T21:03:24.357Z,2.50
2022-10-17T21:05:50.891Z,3.47
2022-10-17T21:08:17.347Z,2.83
2022-10-17T21:10:43.865Z,3.47
2022-10-17T21:13:10.366Z,3.37
2022-10-17T21:15:36.901Z,3.20
2022-10-17T21:18:03.671Z,2.73
2022-10-17T21:20:30.128Z,3.10
2022-10-17T21:22:57.455Z,3.17
2022-10-17T21:25:23.937Z,3.30
2022-10-17T21:27:52.308Z,3.07
2022-10-17T21:30:19.805Z,3.50
2022-10-17T21:32:51.383Z,3.27
2022-10-17T21:35:18.402Z,3.10
2022-10-17T21:37:44.904Z,2.50
2022-10-17T21:40:12.138Z,3.80
2022-10-17T21:42:38.635Z,2.60
2022-10-17T21:45:10.764Z,3.53
2022-10-17T21:47:54.937Z,3.00
2022-10-17T21:50:28.490Z,3.53
2022-10-17T21:52:54.959Z,2.97
2022-10-17T21:55:21.427Z,3.03
2022-10-17T21:57:47.999Z,2.73
2022-10-17T22:00:14.699Z,3.00
2022-10-17T22:02:41.219Z,2.73
2022-10-17T22:05:08.076Z,2.93
2022-10-17T22:07:34.583Z,2.70
2022-10-17T22:10:01.131Z,3.77
2022-10-17T22:12:27.658Z,4.30
2022-10-17T22:14:54.224Z,5.03
2022-10-17T22:17:20.734Z,2.77
2022-10-17T22:19:47.315Z,2.80
2022-10-17T22:22:13.967Z,2.93
2022-10-17T22:24:40.467Z,2.60
2022-10-17T22:27:07.151Z,3.13
2022-10-17T22:29:34.436Z,3.30
2022-10-17T22:32:00.907Z,2.57
2022-10-17T22:34:27.495Z,2.50
2022-10-17T22:36:54.044Z,3.97
2022-10-17T22:39:20.583Z,2.73
2022-10-17T22:41:47.084Z,3.37
2022-10-17T22:44:13.719Z,2.90
2022-10-17T22:46:40.248Z,2.30
2022-10-17T22:49:06.756Z,2.90
2022-10-17T22:51:33.264Z,2.60
2022-10-17T22:53:59.762Z,2.53
2022-10-17T22:56:26.443Z,2.93
2022-10-17T22:58:52.938Z,2.23
2022-10-17T23:01:21.113Z,2.63
2022-10-17T23:03:47.773Z,2.40
2022-10-17T23:06:14.319Z,2.67
2022-10-17T23:08:41.115Z,3.53
2022-10-17T23:11:07.850Z,2.47
2022-10-17T23:13:34.460Z,2.73
2022-10-17T23:16:01.024Z,2.27
2022-10-17T23:18:27.664Z,3.90
2022-10-17T23:20:54.315Z,2.43
2022-10-17T23:23:20.860Z,3.27
2022-10-17T23:25:47.575Z,2.47
2022-10-17T23:28:14.166Z,2.70
2022-10-17T23:30:40.791Z,2.67
2022-10-17T23:33:07.439Z,3.87
2022-10-17T23:35:34.147Z,2.90
2022-10-17T23:38:00.653Z,2.90
2022-10-17T23:40:28.058Z,2.70
2022-10-17T23:42:54.538Z,2.60
2022-10-17T23:45:21.109Z,2.60
2022-10-17T23:47:47.631Z,2.60
2022-10-17T23:50:14.147Z,3.00
2022-10-17T23:52:40.688Z,2.60
2022-10-17T23:55:08.008Z,2.80
2022-10-17T23:57:34.711Z,3.43
